Time;durP1;ratioP1;P1;durP2;ratioP2;P2;SDS_P1;SDS_P2;PMS_P1;PMS_P2;Temp;Humidity;BMP_temperature;BMP_pressure;BME280_temperature;BME280_humidity;BME280_pressure;Samples;Min_cycle;Max_cycle;Signal;HPM_P1;HPM_P2
2024/04/10 00:01:00;;;;;;;;;;;;;;;19.21;44.20;101004.53;5199728;26;94439;-74
2024/04/10 00:03:31;;;;;;;;;;;;;;;19.19;44.19;101006.78;5207519;26;95041;-80
2024/04/10 00:05:58;;;;;;;;;;;;;;;19.17;43.95;101015.28;5194166;26;94602;-73
2024/04/10 00:08:30;;;;;;;;;;;;;;;19.15;44.10;101027.66;5194597;26;97033;-80
2024/04/10 00:10:56;;;;;;;;;;;;;;;19.12;44.52;101042.72;5224307;26;94417;-75
2024/04/10 00:13:26;;;;;;;;;;;;;;;19.11;44.50;101041.94;5221719;26;94274;-78
2024/04/10 00:16:03;;;;;;;;;;;;;;;19.08;44.14;101045.28;5194724;26;94382;-79
2024/04/10 00:18:30;;;;;;;;;;;;;;;19.12;44.50;101048.19;5233512;26;94323;-73
2024/04/10 00:21:00;;;;;;;;;;;;;;;19.18;44.64;101051.59;5192982;26;95897;-79
2024/04/10 00:23:26;;;;;;;;;;;;;;;19.23;44.44;101038.63;5199610;26;94429;-74
2024/04/10 00:26:06;;;;;;;;;;;;;;;19.27;44.15;101036.91;5193509;26;94714;-74
2024/04/10 00:28:36;;;;;;;;;;;;;;;19.30;44.34;101013.59;5206155;26;95988;-80
2024/04/10 00:31:05;;;;;;;;;;;;;;;19.30;44.28;101030.81;5220218;26;94498;-79
2024/04/10 00:33:31;;;;;;;;;;;;;;;19.32;44.65;101031.28;5215181;26;94962;-73
2024/04/10 00:36:02;;;;;;;;;;;;;;;19.33;43.97;101037.56;5203008;26;94657;-79
2024/04/10 00:38:29;;;;;;;;;;;;;;;19.33;44.16;101032.91;5191241;26;95474;-73
2024/04/10 00:40:57;;;;;;;;;;;;;;;19.32;44.18;101036.75;5221129;26;95479;-73
2024/04/10 00:43:26;;;;;;;;;;;;;;;19.32;44.75;101042.22;5221108;26;94702;-78
2024/04/10 00:46:13;;;;;;;;;;;;;;;19.32;44.12;101052.34;5203617;26;95495;-78
2024/04/10 00:48:42;;;;;;;;;;;;;;;19.30;44.13;101047.22;5232614;26;94989;-78
2024/04/10 00:51:10;;;;;;;;;;;;;;;19.29;44.50;101055.69;5231221;26;94207;-73
2024/04/10 00:53:38;;;;;;;;;;;;;;;19.27;44.09;101061.50;5220245;26;95796;-79
2024/04/10 00:56:05;;;;;;;;;;;;;;;19.26;44.29;101065.34;5250586;26;94789;-72
2024/04/10 00:58:32;;;;;;;;;;;;;;;19.25;44.27;101057.44;5229629;26;95700;-79
2024/04/10 01:00:59;;;;;;;;;;;;;;;19.21;44.83;101062.72;5203405;26;94373;-80
2024/04/10 01:03:26;;;;;;;;;;;;;;;19.20;44.48;101071.25;5221690;26;94487;-73
2024/04/10 01:06:01;;;;;;;;;;;;;;;19.18;44.32;101073.47;5225381;26;94252;-73
2024/04/10 01:08:29;;;;;;;;;;;;;;;19.15;44.40;101080.38;5192789;26;94771;-80
2024/04/10 01:11:00;;;;;;;;;;;;;;;19.14;44.62;101092.44;5239648;26;94140;-80
2024/04/10 01:13:26;;;;;;;;;;;;;;;19.11;44.40;101088.38;5194853;26;94316;-74
2024/04/10 01:15:52;;;;;;;;;;;;;;;19.09;44.72;101082.41;5196506;26;96453;-76
2024/04/10 01:18:18;;;;;;;;;;;;;;;19.06;44.63;101080.31;5203572;26;94292;-74
2024/04/10 01:20:48;;;;;;;;;;;;;;;19.05;44.23;101080.59;5229698;26;94414;-78
2024/04/10 01:23:19;;;;;;;;;;;;;;;19.02;44.69;101097.59;5202060;26;94200;-81
2024/04/10 01:25:45;;;;;;;;;;;;;;;19.00;44.59;101110.78;5200287;26;94269;-74
2024/04/10 01:28:13;;;;;;;;;;;;;;;18.97;44.48;101100.47;5223007;26;94209;-80
2024/04/10 01:30:40;;;;;;;;;;;;;;;18.94;44.39;101093.69;5205920;26;94211;-80
2024/04/10 01:33:07;;;;;;;;;;;;;;;18.92;44.62;101103.31;5195802;26;94349;-74
2024/04/10 01:35:33;;;;;;;;;;;;;;;18.89;44.70;101111.00;5190685;26;94091;-73
2024/04/10 01:38:08;;;;;;;;;;;;;;;18.87;44.57;101107.78;5197288;26;94990;-79
2024/04/10 01:40:35;;;;;;;;;;;;;;;18.84;44.39;101108.38;5197715;26;94306;-73
2024/04/10 01:43:02;;;;;;;;;;;;;;;18.83;44.60;101114.16;5191733;26;94666;-74
2024/04/10 01:45:28;;;;;;;;;;;;;;;18.81;44.42;101119.91;5199112;26;94080;-74
2024/04/10 01:47:55;;;;;;;;;;;;;;;18.80;44.56;101122.97;5201591;26;95799;-74
2024/04/10 01:50:22;;;;;;;;;;;;;;;18.77;44.22;101135.31;5194494;26;94388;-74
2024/04/10 01:52:48;;;;;;;;;;;;;;;18.76;44.64;101143.81;5224227;26;94660;-74
2024/04/10 01:55:17;;;;;;;;;;;;;;;18.73;44.59;101145.22;5204111;26;94375;-80
2024/04/10 01:57:46;;;;;;;;;;;;;;;18.71;44.64;101136.53;5190434;26;94550;-78
2024/04/10 02:00:18;;;;;;;;;;;;;;;18.70;44.74;101134.91;5193423;26;95632;-73
2024/04/10 02:02:47;;;;;;;;;;;;;;;18.67;44.67;101127.31;5214915;26;94895;-72
2024/04/10 02:05:18;;;;;;;;;;;;;;;18.64;44.73;101126.00;5238088;26;94293;-79
2024/04/10 02:07:45;;;;;;;;;;;;;;;18.63;44.65;101112.66;5222450;26;95051;-73
2024/04/10 02:10:11;;;;;;;;;;;;;;;18.61;44.73;101117.59;5190889;26;96488;-72
2024/04/10 02:12:38;;;;;;;;;;;;;;;18.59;44.67;101119.84;5197635;26;94826;-79
2024/04/10 02:15:06;;;;;;;;;;;;;;;18.58;44.62;101115.47;5241800;26;95141;-79
2024/04/10 02:17:32;;;;;;;;;;;;;;;18.56;44.67;101109.53;5195948;26;94053;-72
2024/04/10 02:19:58;;;;;;;;;;;;;;;18.53;44.83;101116.41;5214798;26;94526;-73
2024/04/10 02:22:25;;;;;;;;;;;;;;;18.53;44.70;101101.94;5221876;26;94318;-73
2024/04/10 02:24:53;;;;;;;;;;;;;;;18.50;44.68;101092.44;5213002;26;94827;-79
2024/04/10 02:27:21;;;;;;;;;;;;;;;18.49;44.70;101098.22;5189014;26;94382;-79
2024/04/10 02:29:49;;;;;;;;;;;;;;;18.47;44.71;101108.63;5218068;26;94829;-73
2024/04/10 02:32:18;;;;;;;;;;;;;;;18.45;44.77;101114.38;5221110;26;94833;-79
2024/04/10 02:34:47;;;;;;;;;;;;;;;18.44;44.59;101122.91;5204742;26;97406;-72
2024/04/10 02:37:15;;;;;;;;;;;;;;;18.42;44.64;101122.38;5218121;26;94777;-79
2024/04/10 02:39:47;;;;;;;;;;;;;;;18.41;44.74;101146.13;5219599;26;96039;-79
2024/04/10 02:42:17;;;;;;;;;;;;;;;18.38;44.80;101147.53;5188725;26;97161;-78
2024/04/10 02:44:51;;;;;;;;;;;;;;;18.37;44.68;101158.75;5200874;26;95781;-79
2024/04/10 02:47:19;;;;;;;;;;;;;;;18.36;44.60;101165.34;5228434;26;94567;-72
2024/04/10 02:49:50;;;;;;;;;;;;;;;18.35;44.74;101166.44;5190880;26;94326;-78
2024/04/10 02:52:17;;;;;;;;;;;;;;;18.33;44.75;101165.94;5197699;26;94909;-72
2024/04/10 02:54:46;;;;;;;;;;;;;;;18.31;44.73;101166.25;5202155;26;94287;-78
2024/04/10 02:57:12;;;;;;;;;;;;;;;18.30;44.52;101174.72;5213196;26;94658;-73
2024/04/10 02:59:38;;;;;;;;;;;;;;;18.28;44.74;101175.03;5195626;26;97335;-72
2024/04/10 03:02:05;;;;;;;;;;;;;;;18.27;44.70;101169.88;5218060;26;94497;-72
2024/04/10 03:04:32;;;;;;;;;;;;;;;18.24;44.81;101174.03;5201333;26;94312;-79
2024/04/10 03:06:58;;;;;;;;;;;;;;;18.22;44.75;101169.97;5222287;26;94760;-72
2024/04/10 03:09:24;;;;;;;;;;;;;;;18.21;44.67;101180.09;5194306;26;94551;-72
2024/04/10 03:11:51;;;;;;;;;;;;;;;18.19;44.94;101185.00;5192943;26;94765;-73
2024/04/10 03:14:18;;;;;;;;;;;;;;;18.18;44.85;101194.31;5191901;26;94815;-72
2024/04/10 03:16:44;;;;;;;;;;;;;;;18.17;44.96;101194.63;5224823;26;94656;-72
2024/04/10 03:19:14;;;;;;;;;;;;;;;18.14;44.53;101196.84;5222956;26;94204;-78
2024/04/10 03:21:41;;;;;;;;;;;;;;;18.13;44.78;101192.50;5222266;26;94378;-79
2024/04/10 03:24:08;;;;;;;;;;;;;;;18.12;44.93;101192.81;5196084;26;94532;-73
2024/04/10 03:26:34;;;;;;;;;;;;;;;18.09;44.46;101199.66;5240672;26;95942;-72
2024/04/10 03:29:00;;;;;;;;;;;;;;;18.08;44.88;101205.44;5200665;26;94614;-72
2024/04/10 03:31:26;;;;;;;;;;;;;;;18.06;44.73;101213.91;5217754;26;94184;-78
2024/04/10 03:33:53;;;;;;;;;;;;;;;18.05;44.80;101204.09;5194191;26;94457;-73
2024/04/10 03:36:21;;;;;;;;;;;;;;;18.04;44.58;101223.50;5215653;26;95754;-79
2024/04/10 03:38:51;;;;;;;;;;;;;;;18.01;45.00;101238.53;5197435;26;95479;-80
2024/04/10 03:41:18;;;;;;;;;;;;;;;17.99;44.91;101248.94;5193411;26;95021;-73
2024/04/10 03:43:44;;;;;;;;;;;;;;;17.99;44.71;101259.03;5195229;26;94243;-80
2024/04/10 03:46:12;;;;;;;;;;;;;;;17.97;44.91;101262.06;5198166;26;95332;-79
2024/04/10 03:48:40;;;;;;;;;;;;;;;17.96;44.93;101251.44;5192877;26;94266;-80
2024/04/10 03:51:08;;;;;;;;;;;;;;;17.93;45.02;101263.78;5197042;26;95368;-73
2024/04/10 03:53:35;;;;;;;;;;;;;;;17.93;44.67;101274.69;5190879;26;95490;-80
2024/04/10 03:56:01;;;;;;;;;;;;;;;17.91;45.10;101271.41;5241696;26;94760;-73
2024/04/10 03:58:27;;;;;;;;;;;;;;;17.90;45.16;101280.72;5219809;26;95329;-74
2024/04/10 04:00:54;;;;;;;;;;;;;;;17.87;44.97;101271.19;5221007;26;94451;-78
2024/04/10 04:03:23;;;;;;;;;;;;;;;17.85;45.02;101278.88;5192579;26;96309;-78
2024/04/10 04:05:49;;;;;;;;;;;;;;;17.85;44.75;101286.25;5222889;26;94750;-71
2024/04/10 04:08:16;;;;;;;;;;;;;;;17.84;45.01;101282.72;5211757;26;94963;-72
2024/04/10 04:10:51;;;;;;;;;;;;;;;17.82;44.98;101273.22;5228029;26;94348;-78
2024/04/10 04:13:17;;;;;;;;;;;;;;;17.81;44.60;101274.31;5228436;26;94747;-78
2024/04/10 04:15:44;;;;;;;;;;;;;;;17.79;44.95;101288.22;5220485;26;94150;-72
2024/04/10 04:18:10;;;;;;;;;;;;;;;17.78;44.84;101294.81;5176065;26;99563;-78
2024/04/10 04:20:39;;;;;;;;;;;;;;;17.77;45.15;101303.28;5191226;26;94338;-79
2024/04/10 04:23:06;;;;;;;;;;;;;;;17.75;45.20;101297.31;5193544;26;94346;-73
2024/04/10 04:25:37;;;;;;;;;;;;;;;17.74;44.62;101301.13;5218306;26;94950;-79
2024/04/10 04:28:03;;;;;;;;;;;;;;;17.74;44.50;101306.56;5196259;26;94365;-72
2024/04/10 04:30:30;;;;;;;;;;;;;;;17.73;45.17;101302.22;5186330;26;95617;-72
2024/04/10 04:32:56;;;;;;;;;;;;;;;17.72;44.50;101306.03;5188626;26;95525;-79
2024/04/10 04:35:23;;;;;;;;;;;;;;;17.70;44.97;101303.63;5197860;26;94405;-79
2024/04/10 04:38:00;;;;;;;;;;;;;;;17.70;44.88;101308.25;5189058;26;94300;-79
2024/04/10 04:40:30;;;;;;;;;;;;;;;17.68;45.11;101305.81;5194970;26;94671;-72
2024/04/10 04:42:58;;;;;;;;;;;;;;;17.66;44.56;101308.03;5241737;26;94955;-78
2024/04/10 04:45:26;;;;;;;;;;;;;;;17.66;45.18;101310.75;5171911;26;94500;-78
2024/04/10 04:47:52;;;;;;;;;;;;;;;17.65;44.98;101311.88;5197206;26;95223;-78
2024/04/10 04:50:19;;;;;;;;;;;;;;;17.65;44.68;101315.41;5194512;26;94651;-78
2024/04/10 04:52:47;;;;;;;;;;;;;;;17.65;44.82;101323.59;5198205;26;94689;-77
2024/04/10 04:55:13;;;;;;;;;;;;;;;17.65;44.78;101328.22;5214806;26;95221;-72
2024/04/10 04:57:41;;;;;;;;;;;;;;;17.65;44.78;101323.59;5202389;26;96172;-77
2024/04/10 05:00:14;;;;;;;;;;;;;;;17.65;45.03;101329.03;5190203;26;94591;-72
2024/04/10 05:02:43;;;;;;;;;;;;;;;17.64;44.98;101330.16;5177191;26;94672;-72
2024/04/10 05:05:21;;;;;;;;;;;;;;;17.66;44.83;101335.31;5200428;26;94463;-77
2024/04/10 05:07:48;;;;;;;;;;;;;;;17.65;45.11;101329.03;5195398;26;95543;-71
2024/04/10 05:10:17;;;;;;;;;;;;;;;17.65;44.85;101334.50;5196876;26;95001;-77
2024/04/10 05:12:44;;;;;;;;;;;;;;;17.66;44.58;101336.09;5202206;26;96802;-71
2024/04/10 05:15:11;;;;;;;;;;;;;;;17.66;45.19;101336.09;5194994;26;95804;-71
2024/04/10 05:17:43;;;;;;;;;;;;;;;17.66;45.14;101341.56;5190816;26;94684;-77
2024/04/10 05:20:13;;;;;;;;;;;;;;;17.66;44.88;101352.47;5171899;26;94596;-71
2024/04/10 05:22:41;;;;;;;;;;;;;;;17.67;45.12;101350.53;5191943;26;96162;-76
2024/04/10 05:25:09;;;;;;;;;;;;;;;17.66;45.17;101348.94;5214162;26;94704;-76
2024/04/10 05:27:38;;;;;;;;;;;;;;;17.66;45.03;101355.19;5196909;26;94756;-76
2024/04/10 05:30:09;;;;;;;;;;;;;;;17.67;45.11;101356.81;5171874;26;94341;-71
2024/04/10 05:32:36;;;;;;;;;;;;;;;17.67;44.68;101358.72;5198705;26;96357;-76
2024/04/10 05:35:05;;;;;;;;;;;;;;;17.67;44.98;101356.00;5196244;26;95311;-72
2024/04/10 05:37:34;;;;;;;;;;;;;;;17.70;45.01;101370.97;5218787;26;95706;-72
2024/04/10 05:40:09;;;;;;;;;;;;;;;17.69;44.69;101367.44;5198268;26;94226;-71
2024/04/10 05:42:36;;;;;;;;;;;;;;;17.70;45.05;101379.97;5189033;26;95043;-71
2024/04/10 05:45:05;;;;;;;;;;;;;;;17.71;45.08;101384.28;5201141;26;94945;-71
2024/04/10 05:47:32;;;;;;;;;;;;;;;17.73;44.56;101393.00;5199259;26;96195;-71
2024/04/10 05:49:58;;;;;;;;;;;;;;;17.76;45.01;101397.88;5170785;26;94948;-71
2024/04/10 05:52:27;;;;;;;;;;;;;;;17.77;44.82;101396.81;5183921;26;94969;-71
2024/04/10 05:54:53;;;;;;;;;;;;;;;17.80;44.68;101400.84;5178553;26;95506;-71
2024/04/10 05:57:24;;;;;;;;;;;;;;;17.82;45.08;101404.09;5194812;26;94825;-76
2024/04/10 05:59:54;;;;;;;;;;;;;;;17.82;44.82;101399.44;5229885;26;94654;-76
2024/04/10 06:02:26;;;;;;;;;;;;;;;17.85;44.65;101406.25;5174726;26;94753;-76
2024/04/10 06:04:55;;;;;;;;;;;;;;;17.87;44.75;101415.72;5173436;26;94972;-75
2024/04/10 06:07:22;;;;;;;;;;;;;;;17.92;44.63;101425.78;5159889;26;94505;-77
2024/04/10 06:09:55;;;;;;;;;;;;;;;17.96;44.67;101413.19;5161188;26;95834;-77
2024/04/10 06:12:22;;;;;;;;;;;;;;;18.02;44.47;101424.81;5198686;26;94608;-76
2024/04/10 06:14:56;;;;;;;;;;;;;;;18.06;44.95;101425.84;5239004;26;94487;-71
2024/04/10 06:17:25;;;;;;;;;;;;;;;18.08;44.51;101429.91;5197136;26;95005;-75
2024/04/10 06:19:54;;;;;;;;;;;;;;;18.11;44.72;101431.22;5199570;26;95012;-72
2024/04/10 06:22:20;;;;;;;;;;;;;;;18.12;44.48;101432.88;5167697;26;95057;-75
2024/04/10 06:24:47;;;;;;;;;;;;;;;18.14;44.84;101438.84;5185721;26;94344;-72
2024/04/10 06:27:15;;;;;;;;;;;;;;;18.15;44.97;101451.38;5165256;26;94383;-72
2024/04/10 06:29:46;;;;;;;;;;;;;;;18.17;44.82;101448.34;5222893;26;95817;-71
2024/04/10 06:32:14;;;;;;;;;;;;;;;18.20;45.01;101456.78;5161164;26;95021;-76
2024/04/10 06:34:41;;;;;;;;;;;;;;;18.22;44.71;101461.91;5175811;26;94267;-76
2024/04/10 06:37:08;;;;;;;;;;;;;;;18.27;44.76;101467.28;5201943;26;95307;-70
2024/04/10 06:39:36;;;;;;;;;;;;;;;18.35;44.58;101483.00;5228903;26;94356;-72
2024/04/10 06:42:05;;;;;;;;;;;;;;;18.42;44.51;101474.44;5164107;26;98487;-72
2024/04/10 06:44:31;;;;;;;;;;;;;;;18.51;44.52;101480.84;5201221;26;96297;-76
2024/04/10 06:46:58;;;;;;;;;;;;;;;18.58;44.59;101475.84;5189230;26;94087;-76
2024/04/10 06:49:28;;;;;;;;;;;;;;;18.62;44.24;101476.88;5215268;26;94205;-72
2024/04/10 06:51:55;;;;;;;;;;;;;;;18.69;44.53;101485.50;5194758;26;96711;-76
2024/04/10 06:54:21;;;;;;;;;;;;;;;18.75;44.40;101487.09;5190084;26;95961;-71
2024/04/10 06:56:47;;;;;;;;;;;;;;;18.83;44.62;101486.41;5192098;26;94731;-71
2024/04/10 06:59:17;;;;;;;;;;;;;;;18.90;44.57;101488.72;5167233;26;94613;-75
2024/04/10 07:01:43;;;;;;;;;;;;;;;18.98;44.36;101498.16;5170510;26;96989;-75
2024/04/10 07:04:09;;;;;;;;;;;;;;;19.08;44.45;101498.81;5191543;26;94986;-75
2024/04/10 07:06:37;;;;;;;;;;;;;;;19.19;44.60;101484.97;5225754;26;94364;-71
2024/04/10 07:09:04;;;;;;;;;;;;;;;19.31;44.32;101485.31;5201128;26;94735;-75
2024/04/10 07:11:31;;;;;;;;;;;;;;;19.42;43.96;101480.47;5181342;26;96254;-72
2024/04/10 07:14:01;;;;;;;;;;;;;;;19.52;44.40;101483.78;5220578;26;96506;-71
2024/04/10 07:16:30;;;;;;;;;;;;;;;19.64;43.79;101485.25;5193448;26;95056;-71
2024/04/10 07:18:57;;;;;;;;;;;;;;;19.71;43.95;101486.47;5201099;26;96404;-71
2024/04/10 07:21:24;;;;;;;;;;;;;;;19.78;44.30;101489.59;5195684;26;95593;-72
2024/04/10 07:23:50;;;;;;;;;;;;;;;19.91;44.31;101498.13;5200818;26;95034;-76
2024/04/10 07:26:20;;;;;;;;;;;;;;;20.02;43.46;101505.00;5188706;26;95713;-71
2024/04/10 07:28:47;;;;;;;;;;;;;;;20.10;43.53;101499.59;5170001;26;95483;-72
2024/04/10 07:31:19;;;;;;;;;;;;;;;20.14;44.34;101507.22;5216111;26;94297;-76
2024/04/10 07:33:46;;;;;;;;;;;;;;;20.20;43.76;101506.81;5193623;26;96226;-75
2024/04/10 07:36:15;;;;;;;;;;;;;;;20.28;43.70;101508.00;5191904;26;94432;-75
2024/04/10 07:38:41;;;;;;;;;;;;;;;20.33;44.44;101519.63;5168303;26;96688;-75
2024/04/10 07:41:08;;;;;;;;;;;;;;;20.38;43.55;101524.19;5214718;26;94697;-76
2024/04/10 07:43:34;;;;;;;;;;;;;;;20.47;44.57;101529.72;5172704;26;94416;-72
2024/04/10 07:46:13;;;;;;;;;;;;;;;20.64;43.41;101523.66;5191941;26;94820;-72
2024/04/10 07:48:40;;;;;;;;;;;;;;;20.88;43.70;101526.09;5215851;26;94513;-76
2024/04/10 07:51:07;;;;;;;;;;;;;;;21.14;43.36;101520.75;5195098;26;95228;-72
2024/04/10 07:53:35;;;;;;;;;;;;;;;21.43;43.43;101532.09;5198433;26;97614;-76
2024/04/10 07:56:02;;;;;;;;;;;;;;;21.66;43.20;101538.34;5200512;26;96303;-72
2024/04/10 07:58:29;;;;;;;;;;;;;;;21.99;43.27;101546.19;5156191;26;94112;-72
2024/04/10 08:00:58;;;;;;;;;;;;;;;22.54;42.65;101545.69;5201223;26;95694;-76
2024/04/10 08:03:25;;;;;;;;;;;;;;;23.21;42.11;101553.41;5178576;26;94177;-76
2024/04/10 08:05:55;;;;;;;;;;;;;;;24.00;41.57;101552.00;5176413;26;94345;-74
2024/04/10 08:08:21;;;;;;;;;;;;;;;24.85;41.06;101555.66;5199337;26;95747;-74
2024/04/10 08:10:48;;;;;;;;;;;;;;;25.57;40.96;101553.47;5171885;26;95485;-74
2024/04/10 08:13:14;;;;;;;;;;;;;;;26.27;41.09;101564.44;5198247;26;97586;-74
2024/04/10 08:15:44;;;;;;;;;;;;;;;26.72;40.33;101575.28;5186136;26;94369;-74
2024/04/10 08:18:13;;;;;;;;;;;;;;;27.36;40.02;101574.34;5190710;26;96512;-76
2024/04/10 08:20:41;;;;;;;;;;;;;;;27.65;40.75;101581.41;5225007;26;96658;-74
2024/04/10 08:23:07;;;;;;;;;;;;;;;27.79;40.53;101586.53;5190823;26;94969;-76
2024/04/10 08:25:40;;;;;;;;;;;;;;;27.85;40.76;101590.63;5194017;26;94352;-76
2024/04/10 08:28:07;;;;;;;;;;;;;;;27.86;40.53;101600.56;5193588;26;94455;-73
2024/04/10 08:30:33;;;;;;;;;;;;;;;27.85;41.20;101603.69;5216225;26;94684;-76
2024/04/10 08:33:01;;;;;;;;;;;;;;;27.81;41.34;101606.38;5168410;26;94344;-76
2024/04/10 08:35:28;;;;;;;;;;;;;;;27.79;41.58;101605.94;5194308;26;96204;-76
2024/04/10 08:37:56;;;;;;;;;;;;;;;27.79;41.60;101613.44;5211520;26;94640;-73
2024/04/10 08:40:22;;;;;;;;;;;;;;;27.82;41.44;101610.72;5192174;26;95772;-73
2024/04/10 08:42:49;;;;;;;;;;;;;;;27.96;41.65;101606.72;5228849;26;94668;-76
2024/04/10 08:45:16;;;;;;;;;;;;;;;28.11;41.42;101612.25;5224040;26;94275;-77
2024/04/10 08:47:43;;;;;;;;;;;;;;;28.38;41.24;101618.06;5172843;26;94120;-73
2024/04/10 08:50:10;;;;;;;;;;;;;;;28.62;41.50;101617.00;5166676;26;94552;-76
2024/04/10 08:52:38;;;;;;;;;;;;;;;28.65;41.65;101626.53;5206367;26;94770;-76
2024/04/10 08:55:06;;;;;;;;;;;;;;;28.75;41.74;101623.22;5196256;26;95717;-76
2024/04/10 08:57:32;;;;;;;;;;;;;;;28.54;41.70;101624.34;5194268;26;94759;-76
2024/04/10 08:59:59;;;;;;;;;;;;;;;28.28;41.79;101624.91;5193219;26;94894;-72
2024/04/10 09:02:25;;;;;;;;;;;;;;;28.17;42.07;101639.69;5197394;26;94571;-73
2024/04/10 09:04:52;;;;;;;;;;;;;;;27.90;42.44;101633.88;5213309;26;97167;-73
2024/04/10 09:07:19;;;;;;;;;;;;;;;27.78;42.60;101637.53;5222240;26;94621;-74
2024/04/10 09:09:50;;;;;;;;;;;;;;;27.74;42.54;101631.09;5200477;26;96234;-76
2024/04/10 09:12:25;;;;;;;;;;;;;;;27.85;42.32;101634.94;5170621;26;94962;-76
2024/04/10 09:15:11;;;;;;;;;;;;;;;27.68;42.46;101635.28;5217603;26;94280;-76
2024/04/10 09:17:37;;;;;;;;;;;;;;;27.71;42.49;101644.84;5201047;26;94468;-76
2024/04/10 09:20:17;;;;;;;;;;;;;;;27.67;42.46;101633.69;5187480;26;94548;-76
2024/04/10 09:22:45;;;;;;;;;;;;;;;27.59;42.80;101635.47;5184362;26;95967;-73
2024/04/10 09:25:12;;;;;;;;;;;;;;;27.95;42.21;101638.38;5167705;26;96597;-74
2024/04/10 09:27:38;;;;;;;;;;;;;;;28.33;41.76;101646.00;5226850;26;94650;-76
2024/04/10 09:30:06;;;;;;;;;;;;;;;28.78;42.11;101639.13;5195373;26;94454;-73
2024/04/10 09:32:36;;;;;;;;;;;;;;;29.51;40.86;101648.53;5219477;26;94977;-76
2024/04/10 09:35:05;;;;;;;;;;;;;;;30.56;39.82;101645.13;5199296;26;94628;-74
2024/04/10 09:37:34;;;;;;;;;;;;;;;31.72;39.21;101667.63;5228826;26;95129;-74
2024/04/10 09:40:02;;;;;;;;;;;;;;;32.73;38.97;101658.84;5171566;26;94820;-73
2024/04/10 09:42:28;;;;;;;;;;;;;;;33.47;38.84;101665.94;5173315;26;94385;-75
2024/04/10 09:45:06;;;;;;;;;;;;;;;34.04;38.64;101668.03;5170581;26;94500;-75
2024/04/10 09:47:37;;;;;;;;;;;;;;;33.93;39.20;101662.41;5199117;26;94308;-74
2024/04/10 09:50:04;;;;;;;;;;;;;;;34.39;38.80;101661.59;5178115;26;95064;-75
2024/04/10 09:52:39;;;;;;;;;;;;;;;35.36;38.97;101665.63;5198066;26;94559;-80
2024/04/10 09:55:06;;;;;;;;;;;;;;;35.23;38.82;101672.94;5195543;26;97153;-79
2024/04/10 09:57:34;;;;;;;;;;;;;;;35.67;38.85;101673.47;5197294;26;94454;-79
2024/04/10 10:00:01;;;;;;;;;;;;;;;35.70;39.00;101673.44;5190986;26;94424;-79
2024/04/10 10:02:31;;;;;;;;;;;;;;;35.76;39.10;101674.59;5194151;26;95145;-75
2024/04/10 10:05:00;;;;;;;;;;;;;;;37.09;38.55;101676.91;5217381;26;96004;-79
2024/04/10 10:07:32;;;;;;;;;;;;;;;36.92;38.45;101673.09;5202677;26;99041;-79
2024/04/10 10:10:07;;;;;;;;;;;;;;;35.86;39.57;101667.31;5203317;26;96224;-79
2024/04/10 10:12:33;;;;;;;;;;;;;;;36.28;39.55;101676.59;5241991;26;95091;-76
2024/04/10 10:15:10;;;;;;;;;;;;;;;36.72;39.04;101678.53;5196455;26;94592;-80
2024/04/10 10:17:38;;;;;;;;;;;;;;;35.57;40.67;101680.75;5172027;26;96147;-76
2024/04/10 10:20:04;;;;;;;;;;;;;;;35.83;40.17;101674.53;5188469;26;103053;-76
2024/04/10 10:22:31;;;;;;;;;;;;;;;35.64;39.91;101680.69;5220170;26;95774;-76
2024/04/10 10:25:00;;;;;;;;;;;;;;;35.37;41.21;101672.03;5223302;26;94339;-79
2024/04/10 10:27:27;;;;;;;;;;;;;;;35.14;41.12;101675.38;5205612;26;95180;-76
2024/04/10 10:30:08;;;;;;;;;;;;;;;34.67;40.91;101669.16;5200267;26;94622;-76
2024/04/10 10:32:34;;;;;;;;;;;;;;;33.85;42.20;101674.78;5214784;26;94895;-75
2024/04/10 10:35:13;;;;;;;;;;;;;;;33.34;42.39;101676.66;5199624;26;95145;-76
2024/04/10 10:37:42;;;;;;;;;;;;;;;33.13;41.76;101687.75;5200728;26;95112;-76
2024/04/10 10:40:15;;;;;;;;;;;;;;;32.88;42.25;101702.38;5166704;26;94096;-75
2024/04/10 10:42:44;;;;;;;;;;;;;;;33.56;41.31;101707.47;5173599;26;96021;-80
2024/04/10 10:45:12;;;;;;;;;;;;;;;33.13;42.01;101719.31;5185881;26;94448;-79
2024/04/10 10:47:39;;;;;;;;;;;;;;;33.39;41.70;101706.22;5164839;26;103813;-79
2024/04/10 10:50:07;;;;;;;;;;;;;;;34.22;41.00;101719.16;5199164;26;95645;-79
2024/04/10 10:52:37;;;;;;;;;;;;;;;34.58;40.80;101714.31;5226521;26;95596;-79
2024/04/10 10:55:10;;;;;;;;;;;;;;;33.84;41.25;101710.34;5171594;26;95047;-79
2024/04/10 10:57:40;;;;;;;;;;;;;;;33.51;41.75;101717.03;5174152;26;100128;-79
2024/04/10 11:00:20;;;;;;;;;;;;;;;33.29;41.67;101716.16;5177819;26;94777;-77
2024/04/10 11:02:48;;;;;;;;;;;;;;;32.94;42.28;101714.81;5191698;26;94767;-79
2024/04/10 11:05:15;;;;;;;;;;;;;;;33.51;41.50;101716.25;5158884;26;95206;-77
2024/04/10 11:07:43;;;;;;;;;;;;;;;33.35;41.19;101722.94;5190788;26;95192;-79
2024/04/10 11:10:13;;;;;;;;;;;;;;;33.27;41.79;101723.31;5171648;26;95288;-80
2024/04/10 11:12:42;;;;;;;;;;;;;;;33.24;41.48;101731.28;5198290;26;95158;-79
2024/04/10 11:15:12;;;;;;;;;;;;;;;33.32;41.16;101737.69;5197560;26;95563;-81
2024/04/10 11:17:39;;;;;;;;;;;;;;;33.22;41.10;101735.69;5174094;26;95327;-77
2024/04/10 11:20:11;;;;;;;;;;;;;;;33.41;41.54;101740.94;5193928;26;97713;-78
2024/04/10 11:22:38;;;;;;;;;;;;;;;34.04;40.38;101738.72;5216304;26;95000;-76
2024/04/10 11:25:05;;;;;;;;;;;;;;;34.38;40.65;101730.72;5166085;26;94293;-76
2024/04/10 11:27:31;;;;;;;;;;;;;;;33.90;41.01;101733.09;5190390;26;94764;-76
2024/04/10 11:29:58;;;;;;;;;;;;;;;33.37;42.16;101728.16;5188393;26;96309;-76
2024/04/10 11:32:24;;;;;;;;;;;;;;;32.99;41.89;101739.56;5211139;26;94825;-77
2024/04/10 11:34:51;;;;;;;;;;;;;;;32.62;42.25;101730.53;5160936;26;95681;-77
2024/04/10 11:37:21;;;;;;;;;;;;;;;33.08;41.49;101735.63;5174896;26;95227;-80
2024/04/10 11:39:49;;;;;;;;;;;;;;;33.99;40.57;101743.91;5188717;26;94375;-79
2024/04/10 11:42:19;;;;;;;;;;;;;;;34.30;40.56;101734.72;5189671;26;96120;-80
2024/04/10 11:44:46;;;;;;;;;;;;;;;34.57;40.80;101737.91;5195815;26;95171;-80
2024/04/10 11:47:14;;;;;;;;;;;;;;;34.55;40.94;101751.53;5185010;26;94324;-80
2024/04/10 11:49:42;;;;;;;;;;;;;;;34.12;41.35;101751.53;5169793;26;95400;-77
2024/04/10 11:52:08;;;;;;;;;;;;;;;33.94;41.49;101745.06;5167904;26;94216;-80
2024/04/10 11:54:36;;;;;;;;;;;;;;;33.66;41.95;101746.63;5173790;26;97390;-79
2024/04/10 11:57:09;;;;;;;;;;;;;;;33.53;41.67;101758.56;5207422;26;96104;-80
2024/04/10 11:59:38;;;;;;;;;;;;;;;34.23;40.54;101753.50;5163248;26;94069;-80
2024/04/10 12:02:09;;;;;;;;;;;;;;;34.53;41.17;101745.53;5163456;26;94085;-80
2024/04/10 12:04:35;;;;;;;;;;;;;;;34.36;40.39;101752.72;5174345;26;94721;-77
2024/04/10 12:07:02;;;;;;;;;;;;;;;34.27;40.67;101759.91;5215122;26;94430;-77
2024/04/10 12:09:40;;;;;;;;;;;;;;;34.82;40.07;101757.47;5217633;26;94381;-81
2024/04/10 12:12:10;;;;;;;;;;;;;;;33.95;41.12;101757.84;5195815;26;94594;-76
2024/04/10 12:14:36;;;;;;;;;;;;;;;33.82;41.18;101765.03;5207549;26;94218;-77
2024/04/10 12:17:07;;;;;;;;;;;;;;;33.35;41.75;101764.84;5170820;26;94590;-81
2024/04/10 12:19:33;;;;;;;;;;;;;;;33.02;41.73;101763.13;5195347;26;94635;-76
2024/04/10 12:22:00;;;;;;;;;;;;;;;32.79;42.21;101766.13;5191756;26;94996;-77
2024/04/10 12:24:34;;;;;;;;;;;;;;;32.69;42.20;101761.28;5194950;26;94272;-80
2024/04/10 12:27:02;;;;;;;;;;;;;;;32.43;42.16;101771.47;5197624;26;94283;-79
2024/04/10 12:29:28;;;;;;;;;;;;;;;32.15;42.26;101780.34;5215872;26;99801;-76
2024/04/10 12:31:55;;;;;;;;;;;;;;;31.91;42.26;101766.97;5171784;26;94287;-80
2024/04/10 12:34:22;;;;;;;;;;;;;;;32.29;41.85;101768.50;5168907;26;94189;-76
2024/04/10 12:39:35;;;;;;;;;;;;;;;31.92;42.02;101772.16;5189568;26;95158;-79
2024/04/10 12:42:01;;;;;;;;;;;;;;;31.64;42.89;101760.69;5212850;26;96382;-77
2024/04/10 12:44:30;;;;;;;;;;;;;;;31.39;43.11;101766.75;5165610;26;97350;-80